首页
METAR-TAF:

METAR-TAF

机场 :

諾里奇, 英格兰

纬度: 52-38N, 经度: 001-18E, 海拔: 14米

当前天气观测

该预报发布于24分钟前的14:20 UTC
风速13节,风向西转西南,在南转西南西之间变化
温度 29°C
湿度 52%
气压 1019 hPa
能见度10公里或以上
少量云层高于4200英尺

METAR: EGSH 221420Z 24013KT 200V280 9999 FEW042 29/18 Q1019 NOSIG

时间: 15:44 (14:44 UTC)

预报

该预报发布于43分钟前的14:01 UTC
预报有效从22日的 15点(UTC)到 22日的 24点(UTC)
风速10节,风向西南
能见度10公里或以上
少量云层高于4000英尺

TAF: EGSH 221401Z 2215/2224 23010KT 9999 FEW040

超过4000个机场的气象观测和天气预报(METAR&TAF报告)。

可查询的气象台以黄色和红色小点在地图上表示。

将鼠标移到小点上方,可查看气象台名称。

然后点击查看天气观测和预报。

如需切换地图:点击带黑十字的绿色按钮放大地图;点击带横线的绿色按钮缩小地图;或者点击绿色箭头查看邻近地区的地图。


METAR-TAF: